Time;durP1;ratioP1;P1;durP2;ratioP2;P2;SDS_P1;SDS_P2;PMS_P1;PMS_P2;Temp;Humidity;BMP_temperature;BMP_pressure;BME280_temperature;BME280_humidity;BME280_pressure;Samples;Min_cycle;Max_cycle;Signal;HPM_P1;HPM_P2
2021/10/01 00:01:29;;;;;;;7.80;3.70;;;10.10;99.90;;;;;;5044587;28;20440;-84
2021/10/01 00:03:56;;;;;;;5.90;2.47;;;10.00;99.90;;;;;;5044270;28;20483;-84
2021/10/01 00:06:24;;;;;;;7.40;3.40;;;9.90;99.90;;;;;;5044621;28;20551;-84
2021/10/01 00:08:51;;;;;;;10.13;2.10;;;9.90;99.90;;;;;;5044994;28;20458;-84
2021/10/01 00:11:18;;;;;;;5.80;2.67;;;9.90;99.90;;;;;;5045397;28;20566;-84
2021/10/01 00:13:45;;;;;;;4.87;2.33;;;9.90;99.90;;;;;;5042753;28;20543;-85
2021/10/01 00:16:12;;;;;;;4.23;2.40;;;10.00;99.90;;;;;;5044089;28;20810;-84
2021/10/01 00:18:39;;;;;;;5.70;2.83;;;10.10;99.90;;;;;;5043501;28;20453;-84
2021/10/01 00:21:07;;;;;;;5.03;2.93;;;10.10;99.90;;;;;;5043623;28;20527;-85
2021/10/01 00:23:35;;;;;;;7.10;2.40;;;10.10;99.90;;;;;;5043360;28;20492;-84
2021/10/01 00:26:03;;;;;;;6.00;2.77;;;10.10;99.90;;;;;;5042990;28;20464;-84
2021/10/01 00:28:30;;;;;;;4.50;2.47;;;10.00;99.90;;;;;;5043799;28;20797;-84
2021/10/01 00:30:57;;;;;;;6.07;2.00;;;10.00;99.90;;;;;;5041277;28;20853;-85
2021/10/01 00:33:24;;;;;;;5.00;2.43;;;9.90;99.90;;;;;;5042677;28;20449;-84
2021/10/01 00:35:51;;;;;;;7.03;2.53;;;9.90;99.90;;;;;;5041551;28;20840;-84
2021/10/01 00:38:17;;;;;;;6.13;2.73;;;10.00;99.90;;;;;;5036951;28;20453;-84
2021/10/01 00:40:46;;;;;;;5.10;2.03;;;10.00;99.90;;;;;;5037293;28;20430;-84
2021/10/01 00:43:13;;;;;;;5.20;2.80;;;10.00;99.90;;;;;;5037830;28;20884;-84
2021/10/01 00:45:39;;;;;;;4.30;2.10;;;10.00;99.90;;;;;;5039791;28;20457;-84
2021/10/01 00:48:07;;;;;;;4.23;2.50;;;10.00;99.90;;;;;;5041014;28;20440;-84
2021/10/01 00:50:34;;;;;;;4.47;2.30;;;10.00;99.90;;;;;;5040310;28;20427;-84
2021/10/01 00:53:01;;;;;;;4.30;2.10;;;10.00;99.90;;;;;;5040521;28;20457;-84
2021/10/01 00:55:30;;;;;;;4.03;2.10;;;10.00;99.90;;;;;;5040979;28;20448;-84
2021/10/01 00:57:58;;;;;;;6.13;2.40;;;9.90;99.90;;;;;;5042605;28;20775;-84
2021/10/01 01:00:27;;;;;;;3.97;2.00;;;9.90;99.90;;;;;;5041992;28;20467;-84
2021/10/01 01:02:56;;;;;;;6.20;2.23;;;9.80;99.90;;;;;;5042319;28;20460;-84
2021/10/01 01:05:29;;;;;;;4.37;2.40;;;9.80;99.90;;;;;;5041575;28;20953;-84
2021/10/01 01:08:08;;;;;;;4.00;2.20;;;9.80;99.90;;;;;;5041211;28;20777;-84
2021/10/01 01:10:44;;;;;;;6.40;2.27;;;9.70;99.90;;;;;;5042185;28;20448;-84
2021/10/01 01:13:17;;;;;;;5.57;2.07;;;9.70;99.90;;;;;;5043615;28;20492;-84
2021/10/01 01:15:52;;;;;;;5.30;2.00;;;9.70;99.90;;;;;;5041715;28;20523;-84
2021/10/01 01:18:25;;;;;;;4.73;2.13;;;9.70;99.90;;;;;;5042307;28;20445;-84
2021/10/01 01:20:54;;;;;;;6.77;2.00;;;9.60;99.90;;;;;;5042028;28;20454;-84
2021/10/01 01:25:57;;;;;;;4.80;1.90;;;9.60;99.90;;;;;;5056632;23;20496;-82
2021/10/01 01:28:48;;;;;;;6.30;2.23;;;9.60;99.90;;;;;;5037519;28;20440;-81
2021/10/01 01:31:25;;;;;;;3.73;2.47;;;9.60;99.90;;;;;;5037369;28;20502;-81
2021/10/01 01:33:58;;;;;;;4.60;2.23;;;9.60;99.90;;;;;;5035383;28;20535;-81
2021/10/01 01:36:25;;;;;;;5.00;2.13;;;9.60;99.90;;;;;;5037613;28;20638;-80
2021/10/01 01:38:55;;;;;;;3.37;1.77;;;9.50;99.90;;;;;;5037696;28;20551;-81
2021/10/01 01:41:24;;;;;;;5.37;3.00;;;9.50;99.90;;;;;;5036316;28;20429;-81
2021/10/01 01:43:54;;;;;;;4.00;1.90;;;9.50;99.90;;;;;;5038547;28;20472;-79
2021/10/01 01:46:22;;;;;;;5.00;2.33;;;9.50;99.90;;;;;;5046342;28;20453;-80
2021/10/01 01:48:49;;;;;;;7.03;2.20;;;9.50;99.90;;;;;;5033810;28;20453;-81
2021/10/01 01:51:18;;;;;;;7.03;2.00;;;9.50;99.90;;;;;;5016805;28;20851;-81
2021/10/01 01:53:46;;;;;;;5.87;1.67;;;9.50;99.90;;;;;;5017057;28;20499;-81
2021/10/01 01:56:14;;;;;;;3.90;2.00;;;9.60;99.90;;;;;;5016338;28;20842;-81
2021/10/01 01:58:44;;;;;;;4.50;1.83;;;9.50;99.90;;;;;;5016066;28;20457;-81
2021/10/01 02:01:12;;;;;;;10.60;2.60;;;9.50;99.90;;;;;;5017038;28;20449;-81
2021/10/01 02:03:40;;;;;;;3.50;1.60;;;9.50;99.90;;;;;;5015900;28;20436;-80
2021/10/01 02:06:09;;;;;;;4.10;1.90;;;9.50;99.90;;;;;;5018488;28;20540;-81
2021/10/01 02:08:39;;;;;;;5.27;2.00;;;9.50;99.90;;;;;;5016098;28;20962;-81
2021/10/01 02:11:06;;;;;;;3.87;1.90;;;9.50;99.90;;;;;;5018799;28;20459;-79
2021/10/01 02:13:35;;;;;;;4.37;2.00;;;9.50;99.90;;;;;;5031126;28;20957;-80
2021/10/01 02:16:03;;;;;;;3.10;1.37;;;9.50;99.90;;;;;;5022023;28;20434;-81
2021/10/01 02:18:32;;;;;;;5.00;2.47;;;9.50;99.90;;;;;;5016009;28;20847;-81
2021/10/01 02:21:02;;;;;;;4.90;1.97;;;9.50;99.90;;;;;;5016066;28;20452;-80
2021/10/01 02:23:29;;;;;;;5.27;2.00;;;9.60;99.90;;;;;;5020409;28;20458;-80
2021/10/01 02:28:48;;;;;;;5.00;1.90;;;9.60;99.90;;;;;;5016147;28;20436;-81
2021/10/01 02:31:22;;;;;;;4.37;1.90;;;9.50;99.90;;;;;;5017742;28;20526;-81
2021/10/01 02:33:51;;;;;;;6.27;2.20;;;9.50;99.90;;;;;;5018292;28;20469;-81
2021/10/01 02:36:18;;;;;;;3.50;1.70;;;9.50;99.90;;;;;;5019412;28;20459;-81
2021/10/01 02:38:45;;;;;;;5.00;1.97;;;9.50;99.90;;;;;;5036038;28;20555;-81
2021/10/01 02:41:13;;;;;;;6.00;2.30;;;9.50;99.90;;;;;;5036905;28;20437;-81
2021/10/01 02:43:40;;;;;;;4.67;2.00;;;9.50;99.90;;;;;;5037285;28;20462;-81
2021/10/01 02:46:06;;;;;;;5.30;1.93;;;9.40;99.90;;;;;;5034727;28;20445;-81
2021/10/01 02:48:35;;;;;;;5.40;2.27;;;9.40;99.90;;;;;;5034891;28;20458;-81
2021/10/01 02:51:07;;;;;;;5.70;2.00;;;9.40;99.90;;;;;;5035215;28;20458;-80
2021/10/01 02:53:44;;;;;;;4.13;1.80;;;9.40;99.90;;;;;;5024918;28;20464;-80
2021/10/01 02:56:18;;;;;;;3.77;1.80;;;9.30;99.90;;;;;;5019584;28;20418;-81
2021/10/01 02:58:52;;;;;;;4.13;1.80;;;9.30;99.90;;;;;;5019495;28;20425;-81
2021/10/01 03:01:22;;;;;;;4.30;1.83;;;9.30;99.90;;;;;;5025625;28;20456;-81
2021/10/01 03:03:52;;;;;;;3.80;1.90;;;9.30;99.90;;;;;;5041677;28;20439;-81
2021/10/01 03:06:21;;;;;;;5.63;1.93;;;9.30;99.90;;;;;;5056550;28;20504;-81
2021/10/01 03:08:51;;;;;;;6.57;2.37;;;9.30;99.90;;;;;;5047505;28;20578;-82
2021/10/01 03:11:19;;;;;;;3.83;2.00;;;9.20;99.90;;;;;;5039741;28;20456;-82
2021/10/01 03:13:49;;;;;;;5.07;2.10;;;9.20;99.90;;;;;;5038847;28;20550;-81
2021/10/01 03:16:18;;;;;;;5.20;1.93;;;9.20;99.90;;;;;;5039468;28;20462;-81
2021/10/01 03:18:46;;;;;;;4.30;1.90;;;9.30;99.90;;;;;;5039377;28;20461;-81
2021/10/01 03:21:14;;;;;;;5.33;2.00;;;9.20;99.90;;;;;;5039259;28;20455;-81
2021/10/01 03:23:45;;;;;;;3.30;1.67;;;9.20;99.90;;;;;;5039269;28;20535;-81
2021/10/01 03:26:12;;;;;;;3.60;1.60;;;9.30;99.90;;;;;;5034592;28;20454;-81
2021/10/01 03:28:42;;;;;;;4.43;1.90;;;9.40;99.90;;;;;;5024371;28;20455;-80
2021/10/01 03:31:10;;;;;;;3.13;1.67;;;9.30;99.90;;;;;;5026803;28;20520;-80
2021/10/01 03:33:37;;;;;;;4.33;1.60;;;9.30;99.90;;;;;;5019607;28;20858;-81
2021/10/01 03:36:06;;;;;;;3.73;1.50;;;9.30;99.90;;;;;;5019017;28;20549;-81
2021/10/01 03:38:33;;;;;;;4.27;1.77;;;9.30;99.90;;;;;;5019792;28;20639;-81
2021/10/01 03:41:01;;;;;;;3.33;1.87;;;9.30;99.90;;;;;;5025450;28;20464;-81
2021/10/01 03:43:28;;;;;;;3.50;1.63;;;9.30;99.90;;;;;;5024382;28;20470;-81
2021/10/01 03:45:57;;;;;;;5.77;2.20;;;9.30;99.90;;;;;;5023117;28;20456;-81
2021/10/01 03:48:24;;;;;;;5.30;2.10;;;9.30;99.90;;;;;;5029293;28;20456;-79
2021/10/01 03:50:51;;;;;;;3.50;1.83;;;9.30;99.90;;;;;;5033344;28;20458;-80
2021/10/01 03:53:18;;;;;;;5.80;2.00;;;9.10;99.90;;;;;;5032297;28;20460;-81
2021/10/01 03:55:45;;;;;;;5.27;1.70;;;9.30;99.90;;;;;;5047010;28;20556;-81
2021/10/01 03:58:12;;;;;;;5.23;1.60;;;9.30;99.90;;;;;;5042393;28;20457;-81
2021/10/01 04:00:39;;;;;;;4.87;2.03;;;9.20;99.90;;;;;;5041342;28;20449;-80
2021/10/01 04:03:07;;;;;;;6.03;1.70;;;9.20;99.90;;;;;;5045290;28;20456;-80
2021/10/01 04:05:34;;;;;;;3.13;1.50;;;9.10;99.90;;;;;;5040763;28;20812;-80
2021/10/01 04:08:08;;;;;;;5.60;1.80;;;9.00;99.90;;;;;;5039139;28;20445;-80
2021/10/01 04:10:35;;;;;;;5.67;2.30;;;9.00;99.90;;;;;;5018615;28;20790;-80
2021/10/01 04:13:03;;;;;;;3.70;2.10;;;9.00;99.90;;;;;;5018458;28;20467;-81
2021/10/01 04:15:30;;;;;;;5.37;1.90;;;9.00;99.90;;;;;;5018220;28;20477;-82
2021/10/01 04:17:57;;;;;;;4.53;2.37;;;9.00;99.90;;;;;;5018156;28;20462;-81
2021/10/01 04:20:26;;;;;;;8.50;2.10;;;9.00;99.90;;;;;;5017786;28;20432;-81
2021/10/01 04:22:53;;;;;;;4.73;1.97;;;9.00;99.90;;;;;;5021113;28;20820;-82
2021/10/01 04:25:20;;;;;;;5.53;2.50;;;9.10;99.90;;;;;;5037745;28;20476;-81
2021/10/01 04:27:46;;;;;;;4.20;2.00;;;9.00;99.90;;;;;;5037012;28;20626;-79
2021/10/01 04:30:14;;;;;;;4.60;2.07;;;9.10;99.90;;;;;;5037721;28;20455;-82
2021/10/01 04:32:45;;;;;;;4.27;2.40;;;9.10;99.90;;;;;;5037567;28;20508;-80
2021/10/01 04:35:12;;;;;;;3.90;1.80;;;8.80;99.90;;;;;;5047094;28;20484;-78
2021/10/01 04:37:40;;;;;;;4.70;2.20;;;9.00;99.90;;;;;;5039680;28;20476;-79
2021/10/01 04:40:08;;;;;;;3.77;2.03;;;8.70;99.90;;;;;;5019504;28;20455;-82
2021/10/01 04:42:35;;;;;;;6.13;2.30;;;8.90;99.90;;;;;;5018748;28;20513;-80
2021/10/01 04:45:02;;;;;;;3.57;2.00;;;8.80;99.90;;;;;;5017896;28;21044;-82
2021/10/01 04:47:29;;;;;;;6.13;2.00;;;8.80;99.90;;;;;;5018755;28;20500;-80
2021/10/01 04:49:56;;;;;;;4.23;2.40;;;8.80;99.90;;;;;;5019162;28;20449;-80
2021/10/01 04:52:23;;;;;;;4.27;2.30;;;8.70;99.90;;;;;;5030016;28;20491;-81
2021/10/01 04:54:51;;;;;;;4.60;2.20;;;8.50;99.90;;;;;;5047039;28;20472;-80
2021/10/01 04:57:18;;;;;;;6.23;2.40;;;8.80;99.90;;;;;;5041468;28;20478;-80
2021/10/01 04:59:45;;;;;;;5.00;2.30;;;8.80;99.90;;;;;;5038056;28;20432;-80
2021/10/01 05:02:11;;;;;;;3.50;2.00;;;8.80;99.90;;;;;;5048975;28;20448;-81
2021/10/01 05:04:38;;;;;;;4.67;2.40;;;8.90;99.90;;;;;;5051267;28;20483;-78
2021/10/01 05:07:05;;;;;;;5.33;2.23;;;8.90;99.90;;;;;;5025765;28;20535;-81
2021/10/01 05:09:32;;;;;;;5.10;2.33;;;8.90;99.90;;;;;;5017929;28;20876;-80
2021/10/01 05:12:00;;;;;;;5.67;2.70;;;8.80;99.90;;;;;;5018359;28;20431;-80
2021/10/01 05:14:27;;;;;;;4.70;2.70;;;8.70;99.90;;;;;;5018018;28;20555;-81
2021/10/01 05:16:54;;;;;;;4.40;2.05;;;8.80;99.90;;;;;;5018642;28;20453;-81
2021/10/01 05:19:21;;;;;;;5.20;2.23;;;8.70;99.90;;;;;;5019064;28;20229;-81
2021/10/01 05:21:47;;;;;;;5.10;2.73;;;8.70;99.90;;;;;;5037910;28;20448;-80
2021/10/01 05:24:14;;;;;;;5.47;2.43;;;8.80;99.90;;;;;;5043182;28;20512;-80
2021/10/01 05:26:42;;;;;;;7.03;2.07;;;8.60;99.90;;;;;;5051406;28;20449;-78
2021/10/01 05:29:10;;;;;;;4.70;2.40;;;8.80;99.90;;;;;;5040121;28;20444;-80
2021/10/01 05:31:37;;;;;;;6.07;3.03;;;8.80;99.90;;;;;;5037390;28;20490;-80
2021/10/01 05:34:06;;;;;;;7.17;2.40;;;8.80;99.90;;;;;;5032081;28;20651;-80
2021/10/01 05:36:33;;;;;;;4.33;2.37;;;8.80;99.90;;;;;;5017284;28;20458;-81
2021/10/01 05:39:00;;;;;;;5.63;2.80;;;8.60;99.90;;;;;;5017839;28;20457;-80
2021/10/01 05:41:28;;;;;;;6.83;2.33;;;8.90;99.90;;;;;;5017428;28;20453;-80
2021/10/01 05:43:55;;;;;;;6.00;2.70;;;8.90;99.90;;;;;;5017200;28;20508;-80
2021/10/01 05:46:23;;;;;;;5.37;2.73;;;8.90;99.90;;;;;;5017088;28;20446;-82
2021/10/01 05:48:52;;;;;;;6.30;3.00;;;8.70;99.90;;;;;;5025728;28;20772;-80
2021/10/01 05:51:20;;;;;;;6.57;3.10;;;8.90;99.90;;;;;;5038663;28;20489;-81
2021/10/01 05:54:01;;;;;;;4.03;2.50;;;8.90;99.90;;;;;;5038408;28;20523;-81
2021/10/01 05:56:28;;;;;;;6.17;3.00;;;8.90;99.90;;;;;;5037287;28;20444;-80
2021/10/01 05:58:55;;;;;;;8.20;3.53;;;8.90;99.90;;;;;;5047512;28;20507;-81
2021/10/01 06:01:23;;;;;;;6.30;2.80;;;8.90;99.90;;;;;;5037354;28;20956;-81
2021/10/01 06:03:51;;;;;;;5.33;2.70;;;8.90;99.90;;;;;;5021591;28;20540;-80
2021/10/01 06:06:18;;;;;;;4.70;2.93;;;9.30;99.90;;;;;;5019296;28;20466;-80
2021/10/01 06:08:45;;;;;;;8.20;3.03;;;9.50;99.90;;;;;;5021550;28;20453;-81
2021/10/01 06:11:12;;;;;;;8.43;3.20;;;9.60;99.90;;;;;;5026257;28;20468;-80
2021/10/01 06:13:39;;;;;;;7.33;3.00;;;9.50;99.90;;;;;;5019348;28;20500;-80
2021/10/01 06:16:06;;;;;;;5.23;2.53;;;9.50;99.90;;;;;;5017756;28;20431;-81
2021/10/01 06:18:34;;;;;;;6.00;3.10;;;9.50;99.90;;;;;;4997427;28;20536;-79
2021/10/01 06:21:01;;;;;;;5.33;3.00;;;9.40;99.90;;;;;;4998963;28;20469;-80
2021/10/01 06:23:33;;;;;;;4.63;2.47;;;9.40;99.90;;;;;;4996454;28;20457;-81
2021/10/01 06:26:01;;;;;;;4.90;2.60;;;9.40;99.90;;;;;;4997355;28;20838;-81
2021/10/01 06:28:27;;;;;;;5.97;2.50;;;9.50;99.90;;;;;;5000571;28;20532;-80
2021/10/01 06:30:55;;;;;;;6.50;3.27;;;9.70;99.90;;;;;;5015108;28;20456;-80
2021/10/01 06:33:22;;;;;;;5.50;2.93;;;9.70;99.90;;;;;;5042227;28;20488;-80
2021/10/01 06:35:51;;;;;;;7.17;3.50;;;9.70;99.90;;;;;;5043211;28;20456;-80
2021/10/01 06:38:18;;;;;;;7.23;3.23;;;9.70;99.90;;;;;;5043558;28;20451;-80
2021/10/01 06:40:45;;;;;;;4.83;2.83;;;9.70;99.90;;;;;;5043201;28;20949;-81
2021/10/01 06:43:14;;;;;;;7.97;3.70;;;9.70;99.90;;;;;;5043069;28;20448;-81
2021/10/01 06:45:43;;;;;;;6.47;3.33;;;9.70;99.90;;;;;;5037058;28;20485;-81
2021/10/01 06:48:21;;;;;;;6.80;3.10;;;9.80;99.90;;;;;;5023453;28;20522;-81
2021/10/01 07:34:34;;;;;;;7.73;3.90;;;11.00;99.90;;;;;;5000600;28;20431;-78
2021/10/01 08:19:19;;;;;;;6.80;3.17;;;13.30;99.90;;;;;;5015256;28;20400;-79
2021/10/01 08:21:46;;;;;;;8.93;2.70;;;13.40;99.90;;;;;;5016575;28;20509;-78
2021/10/01 08:24:13;;;;;;;6.40;2.90;;;13.50;99.90;;;;;;5014248;28;20481;-79
2021/10/01 08:26:41;;;;;;;9.33;4.33;;;13.70;99.90;;;;;;4993562;28;20440;-79
2021/10/01 08:29:08;;;;;;;8.90;4.70;;;13.80;99.90;;;;;;4993320;28;20509;-80
2021/10/01 08:31:37;;;;;;;7.73;3.60;;;13.80;99.90;;;;;;4994319;28;20468;-80
2021/10/01 08:34:05;;;;;;;6.53;3.67;;;13.90;99.90;;;;;;4986929;28;20458;-80
2021/10/01 08:36:33;;;;;;;6.03;3.13;;;14.10;99.90;;;;;;4980793;28;20516;-80
2021/10/01 08:39:00;;;;;;;5.53;2.53;;;14.10;99.90;;;;;;4989680;28;20460;-80
2021/10/01 08:41:26;;;;;;;4.90;2.73;;;14.20;99.90;;;;;;4999827;28;20437;-80
2021/10/01 08:43:53;;;;;;;9.90;2.20;;;14.20;99.90;;;;;;5002969;28;20465;-80
2021/10/01 08:46:22;;;;;;;4.60;2.30;;;14.30;99.90;;;;;;4999908;28;20574;-79
2021/10/01 08:48:51;;;;;;;6.13;2.00;;;14.50;99.90;;;;;;4999681;28;20433;-80
2021/10/01 08:51:17;;;;;;;7.30;2.60;;;14.50;99.90;;;;;;4999587;28;20466;-80
2021/10/01 08:53:45;;;;;;;5.93;3.50;;;14.60;99.90;;;;;;4991499;28;20452;-80
2021/10/01 08:56:12;;;;;;;4.80;2.57;;;14.70;99.90;;;;;;4981695;28;20458;-80
2021/10/01 08:58:39;;;;;;;10.17;3.03;;;14.70;99.90;;;;;;4980620;28;20456;-80
2021/10/01 09:01:06;;;;;;;5.63;2.80;;;14.80;99.90;;;;;;4979609;28;20458;-80
2021/10/01 09:03:33;;;;;;;7.70;2.60;;;14.90;99.90;;;;;;4980400;28;20576;-80
2021/10/01 09:06:01;;;;;;;7.80;2.80;;;14.90;99.90;;;;;;4980065;28;20485;-80
2021/10/01 09:08:29;;;;;;;8.63;2.70;;;15.00;99.90;;;;;;4994329;28;20498;-80
2021/10/01 09:11:00;;;;;;;9.33;3.13;;;15.10;99.90;;;;;;4999793;28;20921;-81
2021/10/01 09:13:28;;;;;;;5.23;2.67;;;15.20;99.90;;;;;;5003340;28;20443;-80
2021/10/01 09:16:03;;;;;;;8.70;4.03;;;15.30;99.90;;;;;;5002363;28;20977;-80
2021/10/01 09:18:32;;;;;;;7.60;3.63;;;15.40;99.90;;;;;;4999953;28;20479;-79
2021/10/01 09:21:09;;;;;;;6.13;3.13;;;15.50;99.90;;;;;;4999787;28;20416;-80
2021/10/01 09:23:42;;;;;;;6.07;2.70;;;15.60;99.90;;;;;;4997847;28;20480;-80
2021/10/01 09:26:11;;;;;;;4.70;2.73;;;15.70;99.90;;;;;;4998866;28;20497;-80
2021/10/01 09:28:50;;;;;;;11.63;2.60;;;15.80;99.90;;;;;;4999284;28;20452;-80
2021/10/01 09:31:32;;;;;;;9.13;2.57;;;15.90;99.90;;;;;;4999108;28;20442;-80
2021/10/01 09:34:00;;;;;;;7.20;2.23;;;16.00;99.90;;;;;;4999127;28;20430;-80
2021/10/01 09:36:29;;;;;;;4.70;2.23;;;16.00;99.90;;;;;;5000117;28;20423;-80
2021/10/01 09:38:57;;;;;;;4.47;2.47;;;16.10;99.90;;;;;;5000123;28;20537;-80
2021/10/01 09:41:26;;;;;;;5.63;2.63;;;16.20;99.90;;;;;;4987539;28;20472;-80
2021/10/01 09:44:14;;;;;;;4.33;1.60;;;16.20;99.90;;;;;;4983547;28;20524;-79
2021/10/01 09:46:45;;;;;;;4.33;2.00;;;16.30;99.90;;;;;;4977201;28;20450;-79
2021/10/01 09:49:14;;;;;;;4.87;2.23;;;16.40;99.90;;;;;;4983235;28;20429;-80
2021/10/01 09:51:49;;;;;;;4.87;1.50;;;16.50;99.90;;;;;;4983148;28;20440;-80
2021/10/01 09:54:16;;;;;;;4.20;1.70;;;16.50;99.90;;;;;;4982702;28;20441;-80
2021/10/01 09:56:43;;;;;;;6.63;2.00;;;16.60;99.90;;;;;;4980309;28;20459;-81
2021/10/01 09:59:13;;;;;;;3.40;1.70;;;16.70;99.90;;;;;;4979426;28;20446;-80
2021/10/01 10:02:02;;;;;;;3.67;2.00;;;16.80;99.90;;;;;;4980367;28;20460;-80
2021/10/01 10:04:30;;;;;;;4.13;1.83;;;16.90;99.90;;;;;;4979767;28;20557;-80
2021/10/01 10:07:07;;;;;;;5.07;2.53;;;17.00;99.90;;;;;;4989052;28;20544;-80
2021/10/01 10:09:37;;;;;;;5.20;2.10;;;17.00;99.90;;;;;;4998324;28;20463;-79
2021/10/01 10:12:04;;;;;;;4.67;1.80;;;17.00;99.90;;;;;;4998555;28;20457;-80
2021/10/01 10:14:34;;;;;;;3.40;1.80;;;17.00;99.90;;;;;;4999192;28;20475;-80
2021/10/01 10:17:01;;;;;;;4.03;1.87;;;17.10;99.90;;;;;;4998943;28;20465;-80
2021/10/01 10:19:31;;;;;;;5.33;2.63;;;17.20;99.90;;;;;;4998309;28;20994;-80
2021/10/01 10:22:01;;;;;;;7.17;2.30;;;17.30;99.90;;;;;;5000042;28;20438;-80
2021/10/01 10:24:28;;;;;;;5.20;1.80;;;17.30;99.90;;;;;;4985164;28;20503;-80
2021/10/01 10:26:57;;;;;;;4.97;1.47;;;17.40;99.90;;;;;;4981702;28;20458;-80
2021/10/01 10:29:26;;;;;;;2.97;1.20;;;17.40;99.90;;;;;;4981079;28;20554;-81
2021/10/01 10:31:54;;;;;;;4.20;1.90;;;17.50;99.90;;;;;;4980731;28;20903;-82
2021/10/01 10:34:24;;;;;;;3.93;1.37;;;17.50;99.90;;;;;;4980626;28;20565;-80
2021/10/01 10:37:03;;;;;;;4.70;1.80;;;17.60;99.10;;;;;;4986323;28;20439;-79
2021/10/01 10:39:52;;;;;;;3.40;1.50;;;17.70;98.70;;;;;;4983551;28;20463;-80
2021/10/01 10:42:37;;;;;;;4.20;1.53;;;17.80;99.00;;;;;;4979394;28;20456;-80
2021/10/01 10:45:13;;;;;;;7.07;2.00;;;17.90;98.30;;;;;;4979151;28;20493;-80
2021/10/01 10:47:46;;;;;;;4.57;1.60;;;17.90;98.20;;;;;;4978387;28;20442;-80
2021/10/01 10:50:46;;;;;;;4.63;1.50;;;18.00;97.80;;;;;;4978290;28;20414;-80
2021/10/01 10:53:29;;;;;;;5.53;1.93;;;18.00;97.80;;;;;;4978025;28;20455;-79
2021/10/01 10:56:02;;;;;;;7.10;2.30;;;18.10;97.80;;;;;;4977514;28;20446;-79
2021/10/01 10:58:49;;;;;;;4.90;1.73;;;18.10;97.80;;;;;;4994687;28;20447;-80
2021/10/01 11:01:39;;;;;;;6.13;1.93;;;18.10;98.10;;;;;;4998671;28;20465;-80
2021/10/01 11:04:40;;;;;;;4.07;2.07;;;18.20;97.80;;;;;;4996979;28;20478;-80
2021/10/01 11:07:31;;;;;;;4.57;1.67;;;18.30;97.30;;;;;;4998549;28;20464;-80
2021/10/01 11:10:35;;;;;;;4.07;1.67;;;18.30;96.80;;;;;;4998020;28;20450;-80
2021/10/01 11:13:28;;;;;;;4.40;1.50;;;18.40;96.70;;;;;;5001977;28;20427;-81
2021/10/01 11:16:17;;;;;;;4.10;1.53;;;18.40;95.80;;;;;;4979584;28;20475;-80
2021/10/01 11:19:04;;;;;;;4.00;1.70;;;18.50;95.60;;;;;;4981111;28;20560;-80
2021/10/01 11:21:33;;;;;;;4.90;2.30;;;18.50;95.50;;;;;;4996862;28;20441;-80
2021/10/01 11:24:02;;;;;;;6.00;1.90;;;18.60;95.60;;;;;;4998305;28;20912;-78
2021/10/01 11:26:32;;;;;;;4.30;1.90;;;18.60;95.00;;;;;;4998995;28;20450;-80
2021/10/01 11:29:01;;;;;;;4.13;1.90;;;18.60;94.50;;;;;;5000459;28;20462;-80
2021/10/01 11:31:37;;;;;;;4.50;2.30;;;18.70;94.30;;;;;;4998115;28;20522;-80
2021/10/01 11:34:04;;;;;;;4.87;1.87;;;18.70;94.20;;;;;;5001683;28;20442;-81
2021/10/01 11:36:31;;;;;;;8.13;2.50;;;18.90;93.90;;;;;;4998080;28;20457;-84
2021/10/01 11:39:08;;;;;;;6.27;2.97;;;18.90;93.50;;;;;;4998871;28;20455;-80
2021/10/01 11:41:41;;;;;;;4.00;1.60;;;18.90;93.10;;;;;;4997783;28;20505;-81
2021/10/01 11:44:09;;;;;;;4.40;2.23;;;18.90;93.50;;;;;;4997357;28;20490;-81
2021/10/01 11:46:38;;;;;;;7.27;3.40;;;19.00;93.30;;;;;;4996394;28;20466;-81
2021/10/01 11:49:13;;;;;;;3.70;1.73;;;19.00;93.30;;;;;;4982373;28;20479;-81
2021/10/01 11:51:41;;;;;;;4.60;1.77;;;19.10;93.20;;;;;;4981415;28;20972;-83
2021/10/01 11:54:15;;;;;;;10.17;1.73;;;19.20;92.60;;;;;;4979281;28;20444;-80
2021/10/01 11:56:56;;;;;;;5.13;2.27;;;19.30;92.40;;;;;;4977894;28;20467;-81
2021/10/01 11:59:25;;;;;;;5.20;1.80;;;19.30;91.80;;;;;;4980164;28;20437;-80
2021/10/01 12:01:58;;;;;;;3.87;1.43;;;19.30;90.40;;;;;;4978248;28;20570;-81
2021/10/01 12:04:34;;;;;;;3.73;1.70;;;19.30;90.10;;;;;;4989066;28;20805;-79
2021/10/01 12:07:02;;;;;;;5.27;1.60;;;19.40;89.70;;;;;;4998196;28;20455;-80
2021/10/01 12:09:29;;;;;;;5.43;1.47;;;19.50;89.30;;;;;;5000854;28;20510;-80
2021/10/01 12:12:06;;;;;;;3.27;1.57;;;19.50;86.10;;;;;;5001968;28;20455;-81
2021/10/01 12:14:33;;;;;;;3.47;1.10;;;19.50;86.40;;;;;;5001050;28;20441;-80
2021/10/01 12:17:01;;;;;;;3.50;1.40;;;19.60;83.80;;;;;;5001742;28;20535;-81
2021/10/01 12:19:30;;;;;;;3.90;2.00;;;19.70;84.30;;;;;;5001613;28;20447;-81
2021/10/01 12:22:05;;;;;;;5.97;1.80;;;19.70;85.10;;;;;;4984729;28;20543;-80
2021/10/01 12:24:42;;;;;;;3.40;1.40;;;19.70;87.30;;;;;;4987201;28;20490;-80
2021/10/01 12:27:10;;;;;;;5.67;1.60;;;19.80;86.40;;;;;;4988275;28;20436;-81
2021/10/01 12:29:43;;;;;;;4.37;1.40;;;19.90;86.20;;;;;;4986914;28;20462;-80
2021/10/01 12:32:10;;;;;;;3.60;1.80;;;19.90;86.10;;;;;;4983593;28;20451;-81
2021/10/01 12:34:41;;;;;;;5.27;1.90;;;19.90;86.00;;;;;;4982024;28;20474;-81
2021/10/01 12:37:10;;;;;;;4.60;1.73;;;19.90;87.00;;;;;;4989955;28;20463;-81
2021/10/01 12:39:40;;;;;;;3.67;1.67;;;19.90;86.20;;;;;;5001950;28;20490;-81
2021/10/01 12:42:10;;;;;;;3.77;1.50;;;19.90;87.10;;;;;;4999665;28;20447;-81
2021/10/01 12:44:39;;;;;;;3.20;1.40;;;19.90;86.90;;;;;;5000350;28;20502;-80
2021/10/01 12:47:12;;;;;;;5.23;1.93;;;20.00;87.30;;;;;;5000320;28;20456;-81
2021/10/01 12:49:39;;;;;;;3.93;1.90;;;20.10;85.20;;;;;;5000945;28;20447;-80
2021/10/01 12:52:11;;;;;;;6.00;2.40;;;20.10;85.80;;;;;;5000298;28;20825;-81
2021/10/01 12:54:44;;;;;;;3.80;1.73;;;20.10;83.40;;;;;;4998847;28;20995;-80
2021/10/01 12:57:35;;;;;;;6.50;1.70;;;20.10;83.80;;;;;;5000305;28;20498;-79
2021/10/01 13:00:18;;;;;;;3.53;1.80;;;20.20;84.10;;;;;;4987867;28;20498;-80
2021/10/01 13:02:47;;;;;;;3.23;1.53;;;20.20;83.60;;;;;;5001345;28;20506;-79
2021/10/01 13:05:18;;;;;;;3.30;1.70;;;20.30;83.60;;;;;;5000448;28;20491;-80
2021/10/01 13:07:46;;;;;;;4.10;1.77;;;20.30;84.10;;;;;;5000350;28;20439;-80
2021/10/01 13:10:28;;;;;;;4.00;2.10;;;20.40;83.30;;;;;;4998985;28;20987;-80
2021/10/01 13:12:59;;;;;;;5.30;2.17;;;20.40;84.00;;;;;;5000390;28;20424;-80
2021/10/01 13:15:31;;;;;;;3.90;1.70;;;20.40;84.40;;;;;;4999796;28;20474;-81
2021/10/01 13:18:27;;;;;;;4.97;2.73;;;20.50;84.40;;;;;;5000294;28;20485;-82
2021/10/01 13:21:05;;;;;;;4.20;1.63;;;20.50;83.70;;;;;;4999477;28;20933;-80
2021/10/01 13:23:35;;;;;;;3.77;2.20;;;20.50;84.30;;;;;;5000207;28;20547;-80
2021/10/01 13:26:08;;;;;;;4.23;2.03;;;20.50;85.20;;;;;;5029711;23;20597;-85
2021/10/01 13:28:37;;;;;;;4.67;3.10;;;20.50;85.10;;;;;;5012095;28;20443;-87
2021/10/01 13:31:04;;;;;;;4.60;2.33;;;20.50;85.80;;;;;;5007668;28;20452;-86
2021/10/01 13:33:31;;;;;;;3.73;1.90;;;20.60;84.70;;;;;;5006550;28;20451;-86
2021/10/01 13:35:59;;;;;;;4.93;2.43;;;20.60;86.30;;;;;;5005720;28;20501;-86
2021/10/01 13:38:28;;;;;;;3.60;1.87;;;20.60;87.50;;;;;;5006468;28;20470;-86
2021/10/01 13:40:55;;;;;;;4.10;2.40;;;20.70;87.00;;;;;;5006355;28;20772;-86
2021/10/01 13:43:22;;;;;;;4.57;2.60;;;20.70;87.20;;;;;;5005555;28;20442;-86
2021/10/01 13:45:50;;;;;;;3.83;1.80;;;20.70;89.30;;;;;;5005777;28;20891;-87
2021/10/01 13:48:17;;;;;;;4.70;2.00;;;20.80;90.10;;;;;;5005640;28;20525;-87
2021/10/01 13:50:44;;;;;;;6.37;2.93;;;20.90;90.10;;;;;;5007483;28;20538;-87
2021/10/01 13:53:11;;;;;;;5.83;3.40;;;20.80;90.30;;;;;;5013954;28;20508;-86
2021/10/01 13:55:39;;;;;;;7.70;3.40;;;20.80;90.90;;;;;;5013245;28;20459;-87
2021/10/01 13:58:06;;;;;;;8.93;2.77;;;20.90;91.30;;;;;;5009585;28;20455;-85
2021/10/01 14:00:33;;;;;;;4.50;2.47;;;20.90;91.50;;;;;;5007979;28;20518;-85
2021/10/01 14:03:01;;;;;;;8.70;3.70;;;21.00;91.70;;;;;;5005507;28;20531;-85
2021/10/01 14:05:28;;;;;;;5.70;2.57;;;21.00;91.70;;;;;;5006477;28;20530;-86
2021/10/01 14:07:54;;;;;;;7.10;3.27;;;21.10;91.70;;;;;;5004787;28;20901;-86
2021/10/01 14:10:24;;;;;;;9.67;7.67;;;21.00;91.70;;;;;;5004494;28;20452;-86
2021/10/01 14:12:51;;;;;;;8.33;3.57;;;21.00;91.90;;;;;;5006237;28;20508;-86
2021/10/01 14:15:21;;;;;;;5.50;3.50;;;21.00;92.10;;;;;;5008274;28;20531;-87
2021/10/01 14:17:48;;;;;;;6.43;4.37;;;21.10;92.10;;;;;;5006361;28;20496;-86
2021/10/01 14:20:18;;;;;;;5.97;4.00;;;21.20;92.30;;;;;;5005281;28;20952;-87
2021/10/01 14:22:46;;;;;;;5.30;3.30;;;21.30;92.50;;;;;;5005749;28;20578;-86
2021/10/01 14:25:14;;;;;;;6.57;3.97;;;21.30;92.60;;;;;;5005505;28;20551;-87
2021/10/01 14:27:41;;;;;;;7.90;5.60;;;21.40;92.70;;;;;;5004218;28;20456;-86
2021/10/01 14:30:11;;;;;;;6.20;4.00;;;21.40;92.60;;;;;;5004657;28;20522;-86
2021/10/01 14:32:39;;;;;;;7.37;3.97;;;21.50;92.80;;;;;;5004800;28;20447;-87
2021/10/01 14:35:08;;;;;;;5.20;3.50;;;21.60;92.70;;;;;;5005828;28;20507;-86
2021/10/01 14:37:37;;;;;;;6.57;4.90;;;21.60;92.80;;;;;;5004953;28;20454;-86